createdAt,value
2018-05-16T00:00:38.784Z,0
2018-05-16T00:01:19.212Z,0
2018-05-16T00:01:59.597Z,0
2018-05-16T00:02:40.033Z,0
2018-05-16T00:03:20.422Z,0
2018-05-16T00:04:01.283Z,0
2018-05-16T00:04:41.740Z,0
2018-05-16T00:05:22.040Z,0
2018-05-16T00:06:02.473Z,0
2018-05-16T00:06:43.002Z,0
2018-05-16T00:07:23.573Z,0
2018-05-16T00:08:03.941Z,0
2018-05-16T00:08:44.333Z,0
2018-05-16T00:09:24.832Z,0
2018-05-16T00:10:06.103Z,0
2018-05-16T00:10:50.894Z,0
2018-05-16T00:11:31.996Z,0
2018-05-16T00:12:13.003Z,0
2018-05-16T00:12:55.512Z,0
2018-05-16T00:13:35.826Z,0
2018-05-16T00:14:16.152Z,0
2018-05-16T00:14:56.567Z,0
2018-05-16T00:15:37.296Z,0
2018-05-16T00:16:17.872Z,0
2018-05-16T00:16:58.344Z,0
2018-05-16T00:17:38.764Z,0
2018-05-16T00:18:19.167Z,0
2018-05-16T00:18:59.982Z,0
2018-05-16T00:19:40.455Z,0
2018-05-16T00:20:21.295Z,0
2018-05-16T00:21:01.683Z,0
2018-05-16T00:21:42.553Z,0
2018-05-16T00:22:25.096Z,0
2018-05-16T00:23:05.524Z,0
2018-05-16T00:23:45.928Z,0
2018-05-16T00:24:26.368Z,0
2018-05-16T00:25:06.718Z,0
2018-05-16T00:25:47.727Z,0
2018-05-16T00:26:28.521Z,0
2018-05-16T00:27:09.061Z,0
2018-05-16T00:27:49.489Z,0
2018-05-16T00:28:29.991Z,0
2018-05-16T00:29:10.306Z,0
2018-05-16T00:29:50.931Z,0
2018-05-16T00:30:31.200Z,0
2018-05-16T00:31:12.057Z,0
2018-05-16T00:31:52.198Z,0
2018-05-16T00:32:32.746Z,0
2018-05-16T00:33:13.175Z,0
2018-05-16T00:33:53.576Z,0
2018-05-16T00:34:34.117Z,0
2018-05-16T00:35:14.588Z,0
2018-05-16T00:35:56.032Z,0
2018-05-16T00:36:36.785Z,0
2018-05-16T00:37:17.260Z,0
2018-05-16T00:37:57.648Z,0
2018-05-16T00:38:38.266Z,0
2018-05-16T00:39:21.182Z,0
2018-05-16T00:40:01.534Z,0
2018-05-16T00:40:42.300Z,0
2018-05-16T00:41:22.704Z,0
2018-05-16T00:42:03.175Z,0
2018-05-16T00:42:44.403Z,0
2018-05-16T00:43:25.142Z,0
2018-05-16T00:44:05.681Z,0
2018-05-16T00:44:46.217Z,0
2018-05-16T00:45:26.972Z,0
2018-05-16T00:48:10.971Z,0
2018-05-16T00:48:50.077Z,0
2018-05-16T00:49:30.466Z,0
2018-05-16T00:50:11.076Z,0
2018-05-16T00:50:51.791Z,0
2018-05-16T00:51:32.516Z,0
2018-05-16T00:52:13.198Z,0
2018-05-16T00:52:53.739Z,0
2018-05-16T00:53:34.437Z,0
2018-05-16T00:54:16.249Z,0
2018-05-16T00:55:05.039Z,0
2018-05-16T00:55:45.501Z,0
2018-05-16T00:56:27.013Z,0
2018-05-16T00:57:08.907Z,0
2018-05-16T00:57:52.340Z,0
2018-05-16T00:58:34.287Z,0
2018-05-16T00:59:16.719Z,0
2018-05-16T01:00:00.876Z,0
2018-05-16T01:00:41.355Z,0
2018-05-16T01:02:45.709Z,0
2018-05-16T01:03:26.305Z,0
2018-05-16T01:04:06.872Z,0
2018-05-16T01:04:48.090Z,0
2018-05-16T01:05:33.774Z,0
2018-05-16T01:06:14.312Z,0
2018-05-16T01:07:04.035Z,0
2018-05-16T01:07:44.500Z,0
2018-05-16T01:08:25.755Z,0
2018-05-16T01:09:11.529Z,0
2018-05-16T01:09:51.877Z,0
2018-05-16T01:10:34.387Z,0
2018-05-16T01:18:23.606Z,0
2018-05-16T01:19:07.064Z,0
2018-05-16T01:19:47.389Z,0
2018-05-16T01:20:28.268Z,0
2018-05-16T01:21:08.444Z,0
2018-05-16T01:21:48.879Z,0
2018-05-16T01:22:29.472Z,0
2018-05-16T01:23:09.888Z,0
2018-05-16T01:23:50.308Z,0
2018-05-16T01:24:30.804Z,0
2018-05-16T01:25:13.596Z,0
2018-05-16T01:25:53.996Z,0
2018-05-16T01:26:34.451Z,0
2018-05-16T01:27:15.118Z,0
2018-05-16T01:27:55.840Z,0
2018-05-16T01:28:36.076Z,0
2018-05-16T01:29:16.440Z,0
2018-05-16T01:29:56.855Z,0
2018-05-16T01:30:37.281Z,0
2018-05-16T01:31:19.204Z,0
2018-05-16T01:32:05.642Z,0
2018-05-16T01:32:51.160Z,0
2018-05-16T01:33:33.882Z,0
2018-05-16T01:34:19.362Z,0
2018-05-16T01:34:59.760Z,0
2018-05-16T01:35:40.699Z,0
2018-05-16T01:36:27.196Z,0
2018-05-16T01:37:07.593Z,0
2018-05-16T01:37:48.017Z,0
2018-05-16T01:38:30.528Z,0
2018-05-16T01:39:12.737Z,0
2018-05-16T01:41:48.630Z,0
2018-05-16T01:42:51.964Z,0
2018-05-16T01:43:32.882Z,0
2018-05-16T01:44:13.211Z,0
2018-05-16T01:44:53.640Z,0
2018-05-16T01:45:34.321Z,0
2018-05-16T01:46:14.511Z,0
2018-05-16T01:46:54.912Z,0
2018-05-16T01:47:35.965Z,0
2018-05-16T01:48:16.449Z,0
2018-05-16T01:48:56.749Z,0
2018-05-16T01:49:39.059Z,0
2018-05-16T01:50:21.269Z,0
2018-05-16T01:51:05.937Z,0
2018-05-16T01:51:48.579Z,0
2018-05-16T01:52:32.394Z,0
2018-05-16T01:53:12.983Z,0
2018-05-16T01:53:53.399Z,0
2018-05-16T01:54:33.739Z,0
2018-05-16T01:55:14.171Z,0
2018-05-16T01:55:59.174Z,0
2018-05-16T01:56:42.584Z,0
2018-05-16T01:57:22.867Z,0
2018-05-16T01:58:03.354Z,0
2018-05-16T01:58:43.884Z,0
2018-05-16T01:59:26.102Z,0
2018-05-16T02:00:06.547Z,0
2018-05-16T02:00:48.578Z,0
2018-05-16T02:01:29.155Z,0
2018-05-16T02:02:09.580Z,0
2018-05-16T02:02:49.959Z,0
2018-05-16T02:03:30.435Z,0
2018-05-16T02:04:13.924Z,0
2018-05-16T02:04:54.330Z,0
2018-05-16T02:12:34.964Z,0
2018-05-16T02:13:15.426Z,0
2018-05-16T02:15:52.624Z,0
2018-05-16T02:16:35.896Z,0
2018-05-16T02:17:16.173Z,0
2018-05-16T02:17:56.697Z,0
2018-05-16T02:18:37.226Z,0
2018-05-16T02:19:17.700Z,0
2018-05-16T02:19:58.382Z,0
2018-05-16T02:20:38.608Z,0
2018-05-16T02:21:19.024Z,0
2018-05-16T02:22:00.090Z,0
2018-05-16T02:22:43.968Z,0
2018-05-16T02:23:24.388Z,0
2018-05-16T02:24:05.744Z,0
2018-05-16T02:24:46.232Z,0
2018-05-16T02:25:29.067Z,0
2018-05-16T02:26:11.271Z,0
2018-05-16T02:26:53.292Z,0
2018-05-16T02:27:55.219Z,0
2018-05-16T02:28:36.494Z,0
2018-05-16T02:29:17.405Z,0
2018-05-16T02:30:00.263Z,0
2018-05-16T02:30:39.694Z,0
2018-05-16T02:36:08.091Z,0
2018-05-16T03:47:13.235Z,12
2018-05-16T03:47:53.614Z,12
2018-05-16T03:48:34.018Z,16
2018-05-16T03:49:14.413Z,16
2018-05-16T03:49:54.856Z,16
2018-05-16T03:50:35.187Z,20
2018-05-16T03:51:15.613Z,24
2018-05-16T03:51:56.082Z,24
2018-05-16T03:52:36.442Z,28
2018-05-16T03:53:16.849Z,32
2018-05-16T03:53:57.239Z,36
2018-05-16T03:54:37.672Z,36
2018-05-16T03:55:18.033Z,40
2018-05-16T03:55:58.468Z,44
2018-05-16T04:01:48.943Z,96
2018-05-16T04:02:29.304Z,104
2018-05-16T04:03:09.668Z,104
2018-05-16T04:41:41.757Z,192
2018-05-16T04:42:22.078Z,192
2018-05-16T04:44:34.941Z,200
2018-05-16T04:47:04.037Z,224
2018-05-16T04:47:44.420Z,232
2018-05-16T04:48:24.821Z,244
2018-05-16T04:49:05.236Z,260
2018-05-16T05:00:53.785Z,1196
2018-05-16T05:01:34.156Z,1296
2018-05-16T05:02:14.562Z,1352
2018-05-16T05:02:54.982Z,3512
2018-05-16T05:03:35.346Z,1496
2018-05-16T05:04:15.796Z,4592
2018-05-16T05:04:56.158Z,5100
2018-05-16T05:05:36.535Z,3476
2018-05-16T05:06:16.942Z,1880
2018-05-16T05:06:57.348Z,4820
2018-05-16T05:07:37.731Z,6096
2018-05-16T05:08:18.189Z,8216
2018-05-16T05:08:58.677Z,8672
2018-05-16T05:09:38.987Z,9244
2018-05-16T05:10:19.392Z,9952
2018-05-16T05:10:59.775Z,11104
2018-05-16T05:11:40.159Z,11872
2018-05-16T05:12:20.597Z,12000
2018-05-16T05:13:01.023Z,12512
2018-05-16T05:13:41.413Z,12256
2018-05-16T05:14:21.807Z,11680
2018-05-16T05:15:02.229Z,5892
2018-05-16T05:15:42.666Z,10384
2018-05-16T05:16:23.029Z,10180
2018-05-16T05:17:03.426Z,13664
2018-05-16T05:17:43.784Z,13824
2018-05-16T05:18:24.275Z,13984
2018-05-16T05:19:04.602Z,13120
2018-05-16T05:19:45.018Z,13376
2018-05-16T05:20:25.421Z,13344
2018-05-16T05:21:05.812Z,9104
2018-05-16T05:21:46.299Z,11872
2018-05-16T05:22:26.726Z,4152
2018-05-16T05:23:07.115Z,4528
2018-05-16T05:23:47.502Z,14144
2018-05-16T05:24:27.916Z,15008
2018-05-16T05:25:08.381Z,15840
2018-05-16T05:25:48.738Z,16704
2018-05-16T05:26:29.145Z,17856
2018-05-16T05:27:09.701Z,17536
2018-05-16T05:28:04.748Z,17056
2018-05-16T05:28:45.246Z,17344
2018-05-16T05:29:25.622Z,17216
2018-05-16T05:30:06.023Z,17856
2018-05-16T05:30:46.437Z,18432
2018-05-16T05:31:26.811Z,19168
2018-05-16T05:32:07.269Z,19680
2018-05-16T05:32:47.704Z,19296
2018-05-16T05:33:28.076Z,19968
2018-05-16T05:34:08.478Z,20224
2018-05-16T05:34:48.884Z,20800
2018-05-16T05:35:29.270Z,21280
2018-05-16T05:36:09.674Z,20512
2018-05-16T05:36:50.156Z,19872
2018-05-16T05:37:30.546Z,17792
2018-05-16T05:38:11.018Z,18816
2018-05-16T05:38:51.391Z,18624
2018-05-16T05:39:31.783Z,19168
2018-05-16T05:40:12.165Z,19104
2018-05-16T05:40:52.625Z,18912
2018-05-16T05:41:33.002Z,19968
2018-05-16T05:42:13.487Z,19328
2018-05-16T05:42:53.924Z,19392
2018-05-16T05:43:34.293Z,19232
2018-05-16T05:44:14.738Z,18016
2018-05-16T05:44:55.147Z,17376
2018-05-16T05:45:35.628Z,17568
2018-05-16T05:46:15.975Z,19488
2018-05-16T05:46:56.602Z,20384
2018-05-16T05:47:37.154Z,21312
2018-05-16T05:48:17.634Z,22976
2018-05-16T05:48:58.039Z,22176
2018-05-16T05:49:38.514Z,20736
2018-05-16T05:50:18.912Z,21280
2018-05-16T05:50:59.329Z,22784
2018-05-16T05:51:39.749Z,24512
2018-05-16T05:52:20.305Z,23744
2018-05-16T05:53:00.613Z,25024
2018-05-16T05:55:13.857Z,26912
2018-05-16T05:55:54.132Z,28224
2018-05-16T05:56:34.666Z,28736
2018-05-16T05:57:14.965Z,28864
2018-05-16T05:57:55.323Z,28480
2018-05-16T05:58:35.797Z,28000
2018-05-16T05:59:16.172Z,28928
2018-05-16T05:59:56.604Z,29984
2018-05-16T06:00:37.167Z,30464
2018-05-16T06:01:17.629Z,30112
2018-05-16T06:01:58.085Z,30112
2018-05-16T06:02:38.565Z,30016
2018-05-16T06:03:18.950Z,31040
2018-05-16T06:03:59.429Z,31648
2018-05-16T06:04:39.835Z,32448
2018-05-16T06:05:20.323Z,33216
2018-05-16T06:06:00.705Z,32896
2018-05-16T06:06:41.145Z,32960
2018-05-16T06:07:21.560Z,32832
2018-05-16T06:08:01.986Z,33600
2018-05-16T06:08:42.396Z,34496
2018-05-16T06:09:22.829Z,34464
2018-05-16T06:10:03.260Z,33920
2018-05-16T06:10:43.663Z,33920
2018-05-16T06:11:24.103Z,35328
2018-05-16T06:12:04.510Z,35680
2018-05-16T06:12:44.934Z,35232
2018-05-16T06:13:25.358Z,34080
2018-05-16T06:14:05.735Z,34592
2018-05-16T06:14:46.159Z,34816
2018-05-16T06:15:26.633Z,37088
2018-05-16T06:16:08.145Z,37792
2018-05-16T06:16:48.614Z,38432
2018-05-16T06:17:29.059Z,38976
2018-05-16T06:18:09.417Z,37920
2018-05-16T06:18:49.877Z,38400
2018-05-16T06:19:30.426Z,38304
2018-05-16T06:20:11.669Z,40736
2018-05-16T06:20:51.392Z,43040
2018-05-16T06:21:31.899Z,44064
2018-05-16T06:22:12.291Z,43776
2018-05-16T06:22:52.691Z,41248
2018-05-16T06:23:33.113Z,42432
2018-05-16T06:24:13.512Z,41824
2018-05-16T06:24:54.008Z,40096
2018-05-16T06:25:34.453Z,36800
2018-05-16T06:26:14.916Z,35104
2018-05-16T06:26:55.289Z,34784
2018-05-16T06:27:35.766Z,34976
2018-05-16T06:28:16.241Z,32448
2018-05-16T06:28:56.591Z,31392
2018-05-16T06:29:37.009Z,30944
2018-05-16T06:30:17.433Z,29344
2018-05-16T06:30:57.894Z,26816
2018-05-16T06:31:38.358Z,25792
2018-05-16T06:32:18.809Z,25088
2018-05-16T06:32:59.214Z,24160
2018-05-16T06:33:39.669Z,24192
2018-05-16T06:35:58.585Z,23424
2018-05-16T06:36:38.108Z,25248
2018-05-16T06:37:18.512Z,26336
2018-05-16T06:38:00.139Z,27168
2018-05-16T06:38:41.360Z,26496
2018-05-16T06:39:21.848Z,24928
2018-05-16T06:40:02.582Z,24192
2018-05-16T06:40:42.925Z,24224
2018-05-16T06:41:23.758Z,24896
2018-05-16T06:42:04.140Z,25440
2018-05-16T06:42:44.574Z,25728
2018-05-16T06:43:25.059Z,25632
2018-05-16T06:44:05.512Z,25280
2018-05-16T06:46:18.679Z,24192
2018-05-16T06:46:59.149Z,23168
2018-05-16T06:47:39.544Z,22816
2018-05-16T06:48:19.998Z,22752
2018-05-16T06:49:00.433Z,23520
2018-05-16T06:49:40.851Z,24032
2018-05-16T06:50:21.230Z,25152
2018-05-16T06:51:01.639Z,26048
2018-05-16T06:51:42.067Z,26752
2018-05-16T06:52:22.490Z,26880
2018-05-16T06:53:02.917Z,26848
2018-05-16T06:53:43.378Z,26880
2018-05-16T06:54:23.761Z,27360
2018-05-16T06:55:04.176Z,27232
2018-05-16T06:55:44.896Z,27840
2018-05-16T06:56:25.408Z,21024
2018-05-16T06:57:05.897Z,25184
2018-05-16T06:57:46.241Z,33696
2018-05-16T06:58:26.862Z,36512
2018-05-16T06:59:07.343Z,40512
2018-05-16T06:59:47.735Z,45312
2018-05-16T07:00:29.244Z,49088
2018-05-16T07:01:09.055Z,43808
2018-05-16T07:01:49.385Z,50464
2018-05-16T07:02:29.943Z,49408
2018-05-16T07:03:10.479Z,51392
2018-05-16T07:03:50.968Z,51136
2018-05-16T07:04:31.403Z,48544
2018-05-16T07:05:11.864Z,46304
2018-05-16T07:05:52.375Z,46368
2018-05-16T07:06:47.552Z,47424
2018-05-16T07:07:34.886Z,47904
2018-05-16T07:08:15.427Z,48480
2018-05-16T07:08:55.842Z,49856
2018-05-16T07:09:51.116Z,47520
2018-05-16T07:13:16.105Z,23904
2018-05-16T07:13:56.623Z,23840
2018-05-16T07:14:38.356Z,23680
2018-05-16T07:15:19.772Z,23456
2018-05-16T07:16:00.022Z,23744
2018-05-16T07:16:40.884Z,23136
2018-05-16T07:17:21.787Z,22784
2018-05-16T07:18:01.961Z,21952
2018-05-16T07:18:42.533Z,21440
2018-05-16T07:19:23.237Z,20864
2018-05-16T07:20:04.349Z,20544
2018-05-16T07:20:44.827Z,20352
2018-05-16T07:21:25.323Z,19776
2018-05-16T07:22:05.668Z,19328
2018-05-16T07:22:46.276Z,19104
2018-05-16T07:23:26.874Z,18880
2018-05-16T07:24:08.391Z,16588
2018-05-16T07:24:48.979Z,12180
2018-05-16T07:25:29.643Z,8688
2018-05-16T07:26:10.033Z,7448
2018-05-16T07:26:50.561Z,7072
2018-05-16T07:27:31.026Z,6844
2018-05-16T07:28:11.443Z,6656
2018-05-16T07:28:51.962Z,6472
2018-05-16T07:29:33.530Z,6244
2018-05-16T07:30:14.497Z,6088
2018-05-16T07:30:54.980Z,5936
2018-05-16T07:31:35.430Z,5784
2018-05-16T07:32:17.264Z,5708
2018-05-16T07:32:57.926Z,5620
2018-05-16T07:33:38.664Z,5592
2018-05-16T07:34:19.125Z,5596
2018-05-16T07:35:01.201Z,5620
2018-05-16T07:35:51.460Z,5516
2018-05-16T07:36:33.476Z,5472
2018-05-16T07:37:14.546Z,5408
2018-05-16T07:37:55.163Z,5360
2018-05-16T07:38:36.315Z,5280
2018-05-16T07:39:16.925Z,5224
2018-05-16T07:39:57.652Z,5208
2018-05-16T07:40:40.020Z,5228
2018-05-16T07:41:20.456Z,5216
2018-05-16T07:42:01.205Z,5200
2018-05-16T07:42:42.454Z,5152
2018-05-16T07:43:24.627Z,5084
2018-05-16T07:44:06.301Z,5032
2018-05-16T07:49:09.273Z,4836
2018-05-16T07:49:50.611Z,4808
2018-05-16T07:50:32.020Z,4776
2018-05-16T07:51:14.197Z,4796
2018-05-16T07:51:55.023Z,4868
2018-05-16T07:52:36.085Z,4832
2018-05-16T07:53:17.497Z,4764
2018-05-16T07:53:57.998Z,4820
2018-05-16T07:54:40.037Z,4856
2018-05-16T07:55:20.633Z,5020
2018-05-16T07:56:01.220Z,4904
2018-05-16T07:56:41.823Z,4504
2018-05-16T07:57:22.424Z,4432
2018-05-16T07:58:03.997Z,4428
2018-05-16T07:58:44.469Z,4520
2018-05-16T07:59:25.518Z,4532
2018-05-16T08:00:05.854Z,4440
2018-05-16T08:00:46.568Z,4456
2018-05-16T08:01:27.132Z,4404
2018-05-16T08:02:07.688Z,4420
2018-05-16T08:02:49.028Z,4504
2018-05-16T08:03:30.100Z,4516
2018-05-16T08:04:13.187Z,4528
2018-05-16T08:04:52.859Z,4544
2018-05-16T08:05:33.078Z,4584
2018-05-16T08:06:13.760Z,4784
2018-05-16T08:06:54.241Z,5028
2018-05-16T08:07:35.543Z,5216
2018-05-16T08:08:16.078Z,5180
2018-05-16T08:08:57.674Z,5260
2018-05-16T08:09:38.247Z,5152
2018-05-16T08:10:19.888Z,5196
2018-05-16T08:11:02.529Z,5128
2018-05-16T08:11:43.967Z,5104
2018-05-16T08:12:24.528Z,5000
2018-05-16T08:13:05.087Z,5084
2018-05-16T08:13:45.682Z,4584
2018-05-16T08:14:27.752Z,3800
2018-05-16T08:15:07.031Z,3464
2018-05-16T08:15:47.620Z,3648
2018-05-16T08:16:28.504Z,3808
2018-05-16T08:17:10.516Z,4424
2018-05-16T08:17:51.193Z,4864
2018-05-16T08:18:31.628Z,4384
2018-05-16T08:19:12.285Z,4588
2018-05-16T08:19:53.958Z,4056
2018-05-16T08:20:35.025Z,4544
2018-05-16T08:21:15.502Z,4584
2018-05-16T08:21:56.212Z,4956
2018-05-16T08:24:39.350Z,3828
2018-05-16T08:25:20.057Z,4096
2018-05-16T08:26:01.545Z,4700
2018-05-16T08:26:41.278Z,4892
2018-05-16T08:27:21.844Z,4616
2018-05-16T08:28:02.835Z,4416
2018-05-16T08:28:43.868Z,4696
2018-05-16T08:29:24.470Z,4688
2018-05-16T08:30:05.045Z,4808
2018-05-16T08:30:45.404Z,4844
2018-05-16T08:31:26.078Z,5120
2018-05-16T08:32:06.634Z,5564
2018-05-16T08:32:47.098Z,5236
2018-05-16T08:33:27.605Z,4504
2018-05-16T08:34:08.102Z,4052
2018-05-16T08:34:48.733Z,4184
2018-05-16T08:35:29.159Z,3696
2018-05-16T08:38:07.372Z,4416
2018-05-16T08:38:45.600Z,4404
2018-05-16T08:42:34.824Z,3240
2018-05-16T08:43:15.237Z,3488
2018-05-16T08:43:55.652Z,4008
2018-05-16T08:44:36.259Z,4512
2018-05-16T08:45:16.543Z,4268
2018-05-16T08:45:57.041Z,3952
2018-05-16T08:46:37.482Z,3740
2018-05-16T08:47:17.972Z,3692
2018-05-16T08:47:58.352Z,3804
2018-05-16T08:48:39.040Z,4412
2018-05-16T08:49:19.418Z,4820
2018-05-16T08:49:59.860Z,4980
2018-05-16T08:50:40.263Z,4724
2018-05-16T08:51:20.877Z,4456
2018-05-16T08:52:01.164Z,4296
2018-05-16T08:52:41.582Z,4484
2018-05-16T08:53:22.053Z,4228
2018-05-16T08:54:02.880Z,4108
2018-05-16T08:54:43.688Z,4264
2018-05-16T08:55:24.514Z,4396
2018-05-16T08:56:05.013Z,4872
2018-05-16T08:56:45.527Z,4828
2018-05-16T08:57:25.940Z,4416
2018-05-16T08:58:06.424Z,4292
2018-05-16T08:58:47.421Z,4196
2018-05-16T08:59:27.944Z,4044
2018-05-16T09:00:08.356Z,3856
2018-05-16T09:00:48.828Z,3672
2018-05-16T09:01:29.515Z,3676
2018-05-16T09:02:10.128Z,3680
2018-05-16T09:02:51.104Z,3680
2018-05-16T09:03:32.340Z,3604
2018-05-16T09:04:12.589Z,3528
2018-05-16T09:04:53.350Z,3508
2018-05-16T09:05:33.883Z,3556
2018-05-16T09:06:14.343Z,3652
2018-05-16T09:06:55.110Z,3776
2018-05-16T09:07:36.696Z,3788
2018-05-16T09:08:16.877Z,3744
2018-05-16T09:08:57.902Z,3772
2018-05-16T09:09:38.463Z,3612
2018-05-16T09:10:18.992Z,3476
2018-05-16T09:10:59.693Z,3604
2018-05-16T09:11:40.661Z,3780
2018-05-16T09:12:21.753Z,3952
2018-05-16T09:13:02.683Z,4076
2018-05-16T09:13:42.929Z,4132
2018-05-16T09:14:24.005Z,4196
2018-05-16T09:15:05.683Z,4060
2018-05-16T09:15:46.696Z,3912
2018-05-16T09:16:26.772Z,3828
2018-05-16T09:17:08.395Z,3848
2018-05-16T09:17:50.414Z,4004
2018-05-16T09:18:30.392Z,4212
2018-05-16T09:19:12.246Z,4196
2018-05-16T09:19:52.657Z,4256
2018-05-16T09:20:33.229Z,4436
2018-05-16T09:21:13.951Z,4292
2018-05-16T09:21:55.117Z,4196
2018-05-16T09:22:35.591Z,4032
2018-05-16T09:23:16.121Z,3908
2018-05-16T09:23:56.664Z,3940
2018-05-16T09:24:37.413Z,4020
2018-05-16T09:25:17.707Z,4040
2018-05-16T09:25:58.810Z,4004
2018-05-16T09:26:39.053Z,3916
2018-05-16T09:27:19.594Z,3660
2018-05-16T09:27:59.989Z,3720
2018-05-16T09:28:41.203Z,3804
2018-05-16T09:29:22.192Z,3472
2018-05-16T09:30:02.278Z,3436
2018-05-16T09:30:42.579Z,3680
2018-05-16T09:31:23.128Z,3736
2018-05-16T09:32:03.721Z,3392
2018-05-16T09:32:44.298Z,3612
2018-05-16T09:33:26.757Z,3524
2018-05-16T09:34:06.183Z,3612
2018-05-16T09:34:46.624Z,3720
2018-05-16T09:35:27.150Z,3684
2018-05-16T09:36:07.547Z,3364
2018-05-16T09:36:48.076Z,3624
2018-05-16T09:37:29.858Z,3828
2018-05-16T09:38:10.456Z,4352
2018-05-16T09:38:50.821Z,4340
2018-05-16T09:39:31.430Z,3760
2018-05-16T09:40:11.865Z,3660
2018-05-16T09:40:53.238Z,3876
2018-05-16T09:41:32.939Z,3708
2018-05-16T09:42:13.521Z,3924
2018-05-16T09:42:53.924Z,3280
2018-05-16T09:43:34.499Z,3184
2018-05-16T09:45:49.148Z,3492
2018-05-16T09:46:29.536Z,3728
2018-05-16T09:47:10.149Z,3908
2018-05-16T09:47:50.627Z,3732
2018-05-16T09:48:35.069Z,3308
2018-05-16T09:49:16.085Z,2880
2018-05-16T09:49:57.005Z,2688
2018-05-16T09:50:37.967Z,2640
2018-05-16T09:51:19.424Z,2548
2018-05-16T09:52:00.775Z,2336
2018-05-16T09:54:22.531Z,2532
2018-05-16T09:57:39.747Z,2224
2018-05-16T09:58:21.262Z,2168
2018-05-16T09:59:01.305Z,2220
2018-05-16T09:59:42.186Z,2172
2018-05-16T10:00:22.894Z,2236
2018-05-16T10:01:03.645Z,2432
2018-05-16T10:01:44.273Z,2808
2018-05-16T10:02:24.837Z,2864
2018-05-16T10:03:05.365Z,2512
2018-05-16T10:03:46.647Z,2208
2018-05-16T10:42:30.854Z,1704
2018-05-16T10:46:03.304Z,1544
2018-05-16T10:46:44.591Z,1396
2018-05-16T10:47:25.163Z,1256
2018-05-16T10:48:06.874Z,1144
2018-05-16T10:48:47.733Z,1040
2018-05-16T10:49:31.125Z,896
2018-05-16T10:50:11.071Z,804
2018-05-16T10:50:52.282Z,760
2018-05-16T10:51:35.877Z,732
2018-05-16T10:52:16.340Z,800
2018-05-16T10:52:56.998Z,928
2018-05-16T10:53:38.366Z,1092
2018-05-16T10:54:19.643Z,1292
2018-05-16T10:55:00.737Z,1456
2018-05-16T10:55:43.366Z,1636
2018-05-16T10:56:23.334Z,1788
2018-05-16T10:57:03.778Z,1896
2018-05-16T10:57:44.346Z,1940
2018-05-16T10:58:25.815Z,1920
2018-05-16T10:59:12.391Z,1884
2018-05-16T10:59:54.387Z,1832
2018-05-16T11:00:35.894Z,1760
2018-05-16T11:01:16.574Z,1732
2018-05-16T11:01:57.223Z,1612
2018-05-16T11:02:38.182Z,1488
2018-05-16T11:03:18.935Z,1400
2018-05-16T11:04:01.182Z,1324
2018-05-16T11:04:44.619Z,1280
2018-05-16T11:05:25.272Z,1272
2018-05-16T11:06:07.246Z,1264
2018-05-16T11:06:47.021Z,1220
2018-05-16T11:07:28.707Z,1216
2018-05-16T11:08:09.451Z,1212
2018-05-16T11:08:50.897Z,1192
2018-05-16T11:09:31.973Z,1200
2018-05-16T11:10:13.401Z,1184
2018-05-16T11:10:55.113Z,1148
2018-05-16T11:11:35.796Z,1144
2018-05-16T11:12:16.326Z,1168
2018-05-16T11:12:57.187Z,1216
2018-05-16T11:13:38.334Z,1264
2018-05-16T11:14:18.811Z,1332
2018-05-16T11:14:59.695Z,1384
2018-05-16T11:15:40.275Z,1476
2018-05-16T11:16:21.103Z,1624
2018-05-16T11:17:04.420Z,1744
2018-05-16T11:17:44.952Z,1864
2018-05-16T11:18:25.586Z,1928
2018-05-16T11:19:06.042Z,2080
2018-05-16T11:19:46.863Z,2072
2018-05-16T11:20:27.364Z,2044
2018-05-16T11:21:08.005Z,1948
2018-05-16T11:21:49.766Z,1984
2018-05-16T11:22:30.214Z,1924
2018-05-16T11:23:10.698Z,1928
2018-05-16T11:23:51.205Z,1980
2018-05-16T11:24:31.849Z,1876
2018-05-16T11:25:12.309Z,1896
2018-05-16T11:25:53.646Z,1916
2018-05-16T11:26:34.653Z,1884
2018-05-16T11:27:16.630Z,1728
2018-05-16T11:27:56.549Z,1676
2018-05-16T11:28:37.665Z,1664
2018-05-16T11:29:20.219Z,1720
2018-05-16T11:30:00.858Z,1796
2018-05-16T11:30:42.590Z,1752
2018-05-16T11:31:23.261Z,1772
2018-05-16T11:32:03.626Z,1912
2018-05-16T11:32:44.656Z,2036
2018-05-16T11:33:25.167Z,2072
2018-05-16T11:34:07.591Z,2272
2018-05-16T11:34:49.940Z,2428
2018-05-16T11:35:30.623Z,2584
2018-05-16T11:36:11.604Z,2552
2018-05-16T11:36:52.223Z,2468
2018-05-16T11:37:32.914Z,2716
2018-05-16T11:38:13.723Z,2824
2018-05-16T11:38:54.873Z,2940
2018-05-16T11:39:36.392Z,2920
2018-05-16T11:40:16.367Z,2960
2018-05-16T11:40:57.827Z,3144
2018-05-16T11:41:42.637Z,3068
2018-05-16T11:42:23.368Z,3028
2018-05-16T11:43:05.617Z,2992
2018-05-16T11:43:45.650Z,2792
2018-05-16T11:44:26.491Z,2640
2018-05-16T11:45:07.039Z,2660
2018-05-16T11:45:49.274Z,2620
2018-05-16T11:46:29.845Z,2520
2018-05-16T11:49:00.069Z,2704
2018-05-16T11:49:40.410Z,2720
2018-05-16T11:50:21.072Z,2748
2018-05-16T11:51:01.667Z,2764
2018-05-16T11:51:45.173Z,2792
2018-05-16T11:52:32.950Z,2660
2018-05-16T11:53:16.356Z,2512
2018-05-16T11:53:56.968Z,2396
2018-05-16T11:54:37.543Z,2228
2018-05-16T11:55:19.109Z,1980
2018-05-16T11:55:59.954Z,1772
2018-05-16T11:56:41.808Z,1620
2018-05-16T11:57:24.353Z,1468
2018-05-16T11:58:35.425Z,1320
2018-05-16T12:00:32.840Z,1132
2018-05-16T12:01:14.139Z,1164
2018-05-16T12:01:54.283Z,1228
2018-05-16T12:02:34.800Z,1292
2018-05-16T12:03:15.250Z,1364
2018-05-16T12:03:55.819Z,1476
2018-05-16T12:04:36.255Z,1588
2018-05-16T12:05:16.843Z,1704
2018-05-16T12:05:57.539Z,1860
2018-05-16T12:06:37.940Z,1908
2018-05-16T12:07:18.849Z,1840
2018-05-16T12:07:59.345Z,1844
2018-05-16T12:08:41.133Z,1888
2018-05-16T12:09:22.627Z,1936
2018-05-16T12:10:02.673Z,2004
2018-05-16T12:10:43.836Z,2088
2018-05-16T12:11:24.737Z,2156
2018-05-16T12:12:05.191Z,2252
2018-05-16T12:12:45.859Z,2288
2018-05-16T12:13:26.864Z,2320
2018-05-16T12:14:08.776Z,2376
2018-05-16T12:14:50.652Z,2388
2018-05-16T12:15:33.422Z,2412
2018-05-16T12:16:13.489Z,2400
2018-05-16T12:16:54.635Z,2392
2018-05-16T12:17:34.656Z,2404
2018-05-16T12:18:15.411Z,2384
2018-05-16T12:18:56.632Z,2336
2018-05-16T12:19:37.857Z,2328
2018-05-16T12:20:18.579Z,2336
2018-05-16T12:20:59.220Z,2268
2018-05-16T12:21:39.710Z,2276
2018-05-16T12:22:20.572Z,2264
2018-05-16T12:23:02.223Z,2296
2018-05-16T12:23:43.645Z,2312
2018-05-16T12:24:23.628Z,2312
2018-05-16T12:25:08.256Z,2372
2018-05-16T12:25:49.731Z,2424
2018-05-16T12:26:30.701Z,2480
2018-05-16T12:27:18.887Z,2556
2018-05-16T12:30:45.262Z,2776
2018-05-16T12:31:24.450Z,2748
2018-05-16T12:32:05.506Z,2696
2018-05-16T12:32:46.095Z,2668
2018-05-16T12:33:26.823Z,2648
2018-05-16T12:34:07.767Z,2648
2018-05-16T12:34:48.933Z,2604
2018-05-16T12:35:29.378Z,2592
2018-05-16T12:36:12.312Z,2376
2018-05-16T12:36:53.259Z,2332
2018-05-16T12:37:33.695Z,2268
2018-05-16T12:38:14.134Z,1968
2018-05-16T12:38:54.796Z,1696
2018-05-16T12:39:37.811Z,1544
2018-05-16T12:40:17.531Z,1408
2018-05-16T12:40:58.696Z,1344
2018-05-16T12:41:39.407Z,1324
2018-05-16T12:42:20.719Z,1280
2018-05-16T12:43:01.148Z,1208
2018-05-16T12:43:41.566Z,1140
2018-05-16T12:44:23.712Z,1084
2018-05-16T12:45:04.909Z,1040
2018-05-16T12:45:46.073Z,1016
2018-05-16T12:48:01.296Z,1220
2018-05-16T12:48:41.737Z,1304
2018-05-16T12:49:22.389Z,1364
2018-05-16T12:50:02.801Z,1436
2018-05-16T12:50:44.127Z,1432
2018-05-16T12:51:24.651Z,1412
2018-05-16T12:52:05.219Z,1444
2018-05-16T12:52:46.643Z,1496
2018-05-16T12:53:51.213Z,1664
2018-05-16T12:54:45.482Z,1808
2018-05-16T12:55:23.440Z,1908
2018-05-16T12:56:04.056Z,1932
2018-05-16T12:56:45.885Z,1980
2018-05-16T12:57:27.725Z,2012
2018-05-16T12:58:08.173Z,2028
2018-05-16T12:58:48.618Z,2068
2018-05-16T12:59:30.162Z,2108
2018-05-16T13:00:10.036Z,2160
2018-05-16T13:00:50.504Z,2176
2018-05-16T13:01:31.003Z,2192
2018-05-16T13:02:11.567Z,2224
2018-05-16T13:02:51.939Z,2312
2018-05-16T13:05:26.429Z,1968
2018-05-16T13:06:08.282Z,1832